sensor_id;sensor_type;location;lat;lon;timestamp;temperature;humidity
75819;DHT22;64453;51.944;9.796;2023-05-29T00:01:56;19.70;52.10
75819;DHT22;64453;51.944;9.796;2023-05-29T00:04:23;19.40;52.10
75819;DHT22;64453;51.944;9.796;2023-05-29T00:06:49;19.80;52.00
75819;DHT22;64453;51.944;9.796;2023-05-29T00:09:17;19.80;52.10
75819;DHT22;64453;51.944;9.796;2023-05-29T00:11:44;19.50;52.50
75819;DHT22;64453;51.944;9.796;2023-05-29T00:14:16;19.70;52.70
75819;DHT22;64453;51.944;9.796;2023-05-29T00:16:46;19.40;53.00
75819;DHT22;64453;51.944;9.796;2023-05-29T00:19:14;19.40;53.10
75819;DHT22;64453;51.944;9.796;2023-05-29T00:21:42;19.40;52.90
75819;DHT22;64453;51.944;9.796;2023-05-29T00:24:13;19.50;53.00
75819;DHT22;64453;51.944;9.796;2023-05-29T00:26:40;19.30;52.60
75819;DHT22;64453;51.944;9.796;2023-05-29T00:29:07;19.30;53.20
75819;DHT22;64453;51.944;9.796;2023-05-29T00:31:34;19.30;53.10
75819;DHT22;64453;51.944;9.796;2023-05-29T00:34:03;19.20;53.30
75819;DHT22;64453;51.944;9.796;2023-05-29T00:36:30;19.20;53.10
75819;DHT22;64453;51.944;9.796;2023-05-29T00:38:57;18.90;53.50
75819;DHT22;64453;51.944;9.796;2023-05-29T00:41:24;18.70;53.50
75819;DHT22;64453;51.944;9.796;2023-05-29T00:43:50;19.00;53.70
75819;DHT22;64453;51.944;9.796;2023-05-29T00:46:17;19.00;54.00
75819;DHT22;64453;51.944;9.796;2023-05-29T00:48:46;18.70;53.70
75819;DHT22;64453;51.944;9.796;2023-05-29T00:51:16;18.50;53.80
75819;DHT22;64453;51.944;9.796;2023-05-29T00:53:43;18.80;53.50
75819;DHT22;64453;51.944;9.796;2023-05-29T00:56:12;18.60;54.10
75819;DHT22;64453;51.944;9.796;2023-05-29T00:58:39;18.30;54.00
75819;DHT22;64453;51.944;9.796;2023-05-29T01:01:06;18.70;54.20
75819;DHT22;64453;51.944;9.796;2023-05-29T01:03:33;18.50;54.30
75819;DHT22;64453;51.944;9.796;2023-05-29T01:06:01;18.70;54.20
75819;DHT22;64453;51.944;9.796;2023-05-29T01:08:30;18.50;54.00
75819;DHT22;64453;51.944;9.796;2023-05-29T01:11:08;18.60;54.00
75819;DHT22;64453;51.944;9.796;2023-05-29T01:13:41;18.20;54.30
75819;DHT22;64453;51.944;9.796;2023-05-29T01:16:15;18.50;54.10
75819;DHT22;64453;51.944;9.796;2023-05-29T01:18:51;18.50;54.20
75819;DHT22;64453;51.944;9.796;2023-05-29T01:21:27;18.60;53.90
75819;DHT22;64453;51.944;9.796;2023-05-29T01:24:24;18.50;53.70
75819;DHT22;64453;51.944;9.796;2023-05-29T01:26:55;18.80;53.30
75819;DHT22;64453;51.944;9.796;2023-05-29T01:29:27;18.50;53.60
75819;DHT22;64453;51.944;9.796;2023-05-29T01:31:57;18.50;53.70
75819;DHT22;64453;51.944;9.796;2023-05-29T01:34:24;18.50;53.60
75819;DHT22;64453;51.944;9.796;2023-05-29T01:36:51;18.30;53.70
75819;DHT22;64453;51.944;9.796;2023-05-29T01:39:19;18.00;54.00
75819;DHT22;64453;51.944;9.796;2023-05-29T01:41:47;18.20;54.20
75819;DHT22;64453;51.944;9.796;2023-05-29T01:44:16;18.10;53.90
75819;DHT22;64453;51.944;9.796;2023-05-29T01:46:44;18.10;54.30
75819;DHT22;64453;51.944;9.796;2023-05-29T01:49:12;18.80;52.50
75819;DHT22;64453;51.944;9.796;2023-05-29T01:51:39;19.00;51.70
75819;DHT22;64453;51.944;9.796;2023-05-29T01:54:07;19.30;51.00
75819;DHT22;64453;51.944;9.796;2023-05-29T01:56:35;18.80;51.30
75819;DHT22;64453;51.944;9.796;2023-05-29T01:59:02;19.30;50.70
75819;DHT22;64453;51.944;9.796;2023-05-29T02:01:31;19.20;50.80
75819;DHT22;64453;51.944;9.796;2023-05-29T02:03:58;19.30;50.90
75819;DHT22;64453;51.944;9.796;2023-05-29T02:06:25;19.50;50.10
75819;DHT22;64453;51.944;9.796;2023-05-29T02:08:52;19.60;49.60
75819;DHT22;64453;51.944;9.796;2023-05-29T02:11:19;19.40;49.50
75819;DHT22;64453;51.944;9.796;2023-05-29T02:13:45;19.20;49.80
75819;DHT22;64453;51.944;9.796;2023-05-29T02:16:13;19.00;49.90
75819;DHT22;64453;51.944;9.796;2023-05-29T02:18:41;18.70;50.40
75819;DHT22;64453;51.944;9.796;2023-05-29T02:21:09;18.80;50.70
75819;DHT22;64453;51.944;9.796;2023-05-29T02:23:36;19.00;49.40
75819;DHT22;64453;51.944;9.796;2023-05-29T02:26:03;19.10;49.70
75819;DHT22;64453;51.944;9.796;2023-05-29T02:28:30;19.10;49.50
75819;DHT22;64453;51.944;9.796;2023-05-29T02:30:57;19.30;49.10
75819;DHT22;64453;51.944;9.796;2023-05-29T02:33:24;19.40;48.60
75819;DHT22;64453;51.944;9.796;2023-05-29T02:35:52;19.50;48.50
75819;DHT22;64453;51.944;9.796;2023-05-29T02:38:19;19.70;48.10
75819;DHT22;64453;51.944;9.796;2023-05-29T02:40:46;19.30;47.70
75819;DHT22;64453;51.944;9.796;2023-05-29T02:43:13;19.10;48.50
75819;DHT22;64453;51.944;9.796;2023-05-29T02:45:40;19.30;48.30
75819;DHT22;64453;51.944;9.796;2023-05-29T02:48:07;19.20;48.30
75819;DHT22;64453;51.944;9.796;2023-05-29T02:50:34;19.30;48.30
75819;DHT22;64453;51.944;9.796;2023-05-29T02:53:02;19.30;48.00
75819;DHT22;64453;51.944;9.796;2023-05-29T02:55:29;19.30;48.00
75819;DHT22;64453;51.944;9.796;2023-05-29T02:58:01;19.20;47.60
75819;DHT22;64453;51.944;9.796;2023-05-29T03:00:28;19.40;47.60
75819;DHT22;64453;51.944;9.796;2023-05-29T03:02:55;19.30;47.50
75819;DHT22;64453;51.944;9.796;2023-05-29T03:05:22;19.20;47.00
75819;DHT22;64453;51.944;9.796;2023-05-29T03:07:49;19.20;47.60
75819;DHT22;64453;51.944;9.796;2023-05-29T03:10:17;19.10;47.60
75819;DHT22;64453;51.944;9.796;2023-05-29T03:12:44;19.20;47.50
75819;DHT22;64453;51.944;9.796;2023-05-29T03:15:11;19.00;47.30
75819;DHT22;64453;51.944;9.796;2023-05-29T03:17:38;19.30;46.90
75819;DHT22;64453;51.944;9.796;2023-05-29T03:20:06;19.20;47.30
75819;DHT22;64453;51.944;9.796;2023-05-29T03:22:34;18.60;47.60
75819;DHT22;64453;51.944;9.796;2023-05-29T03:25:02;18.60;47.80
75819;DHT22;64453;51.944;9.796;2023-05-29T03:27:31;18.80;47.60
75819;DHT22;64453;51.944;9.796;2023-05-29T03:29:59;18.90;47.10
75819;DHT22;64453;51.944;9.796;2023-05-29T03:32:26;18.70;47.20
75819;DHT22;64453;51.944;9.796;2023-05-29T03:34:52;19.10;47.00
75819;DHT22;64453;51.944;9.796;2023-05-29T03:37:20;18.50;47.30
75819;DHT22;64453;51.944;9.796;2023-05-29T03:39:47;18.80;47.50
75819;DHT22;64453;51.944;9.796;2023-05-29T03:42:14;18.70;47.10
75819;DHT22;64453;51.944;9.796;2023-05-29T03:44:42;18.80;46.70
75819;DHT22;64453;51.944;9.796;2023-05-29T03:47:09;18.90;46.70
75819;DHT22;64453;51.944;9.796;2023-05-29T03:49:36;19.00;46.90
75819;DHT22;64453;51.944;9.796;2023-05-29T03:52:03;19.00;46.70
75819;DHT22;64453;51.944;9.796;2023-05-29T03:54:30;19.00;46.70
75819;DHT22;64453;51.944;9.796;2023-05-29T03:56:57;18.60;46.40
75819;DHT22;64453;51.944;9.796;2023-05-29T03:59:24;19.10;46.60
75819;DHT22;64453;51.944;9.796;2023-05-29T04:01:52;19.10;46.20
75819;DHT22;64453;51.944;9.796;2023-05-29T04:04:19;19.40;46.10
75819;DHT22;64453;51.944;9.796;2023-05-29T04:06:46;19.30;45.80
75819;DHT22;64453;51.944;9.796;2023-05-29T04:09:12;19.40;45.70
75819;DHT22;64453;51.944;9.796;2023-05-29T04:11:39;19.20;45.60
75819;DHT22;64453;51.944;9.796;2023-05-29T04:14:07;18.70;45.80
75819;DHT22;64453;51.944;9.796;2023-05-29T04:16:34;19.10;46.20
75819;DHT22;64453;51.944;9.796;2023-05-29T04:19:02;18.90;46.20
75819;DHT22;64453;51.944;9.796;2023-05-29T04:21:29;18.80;46.50
75819;DHT22;64453;51.944;9.796;2023-05-29T04:23:57;18.90;46.40
75819;DHT22;64453;51.944;9.796;2023-05-29T04:26:24;19.00;45.90
75819;DHT22;64453;51.944;9.796;2023-05-29T04:28:52;18.80;46.30
75819;DHT22;64453;51.944;9.796;2023-05-29T04:31:23;18.60;46.70
75819;DHT22;64453;51.944;9.796;2023-05-29T04:33:51;18.80;46.80
75819;DHT22;64453;51.944;9.796;2023-05-29T04:36:22;18.60;46.80
75819;DHT22;64453;51.944;9.796;2023-05-29T04:38:51;18.10;47.00
75819;DHT22;64453;51.944;9.796;2023-05-29T04:41:19;18.40;47.30
75819;DHT22;64453;51.944;9.796;2023-05-29T04:43:49;18.50;47.40
75819;DHT22;64453;51.944;9.796;2023-05-29T04:46:17;18.50;46.90
75819;DHT22;64453;51.944;9.796;2023-05-29T04:48:44;18.40;47.20
75819;DHT22;64453;51.944;9.796;2023-05-29T04:51:11;18.70;47.00
75819;DHT22;64453;51.944;9.796;2023-05-29T04:53:40;18.80;46.90
75819;DHT22;64453;51.944;9.796;2023-05-29T04:56:07;18.50;46.90
75819;DHT22;64453;51.944;9.796;2023-05-29T04:58:34;18.20;46.90
75819;DHT22;64453;51.944;9.796;2023-05-29T05:01:01;18.20;47.60
75819;DHT22;64453;51.944;9.796;2023-05-29T05:03:31;18.60;47.70
75819;DHT22;64453;51.944;9.796;2023-05-29T05:05:59;18.60;46.90
75819;DHT22;64453;51.944;9.796;2023-05-29T05:08:28;18.70;47.10
75819;DHT22;64453;51.944;9.796;2023-05-29T05:10:57;18.80;47.30
75819;DHT22;64453;51.944;9.796;2023-05-29T05:13:24;19.10;46.90
75819;DHT22;64453;51.944;9.796;2023-05-29T05:15:51;19.00;46.30
75819;DHT22;64453;51.944;9.796;2023-05-29T05:18:18;18.80;46.90
75819;DHT22;64453;51.944;9.796;2023-05-29T05:20:45;18.80;46.70
75819;DHT22;64453;51.944;9.796;2023-05-29T05:23:12;18.80;47.20
75819;DHT22;64453;51.944;9.796;2023-05-29T05:25:39;19.00;46.80
75819;DHT22;64453;51.944;9.796;2023-05-29T05:28:08;18.80;46.70
75819;DHT22;64453;51.944;9.796;2023-05-29T05:30:35;19.10;46.70
75819;DHT22;64453;51.944;9.796;2023-05-29T05:33:02;19.00;47.20
75819;DHT22;64453;51.944;9.796;2023-05-29T05:35:29;19.30;46.90
75819;DHT22;64453;51.944;9.796;2023-05-29T05:37:56;19.40;46.50
75819;DHT22;64453;51.944;9.796;2023-05-29T05:40:24;19.20;46.00
75819;DHT22;64453;51.944;9.796;2023-05-29T05:42:51;19.30;46.20
75819;DHT22;64453;51.944;9.796;2023-05-29T05:45:20;19.20;46.50
75819;DHT22;64453;51.944;9.796;2023-05-29T05:47:47;19.30;46.10
75819;DHT22;64453;51.944;9.796;2023-05-29T05:50:14;19.50;46.40
75819;DHT22;64453;51.944;9.796;2023-05-29T05:52:41;19.50;45.80
75819;DHT22;64453;51.944;9.796;2023-05-29T05:55:08;19.40;46.40
75819;DHT22;64453;51.944;9.796;2023-05-29T05:57:35;19.50;45.70
75819;DHT22;64453;51.944;9.796;2023-05-29T06:00:02;19.50;45.90
75819;DHT22;64453;51.944;9.796;2023-05-29T06:02:34;19.50;45.70
75819;DHT22;64453;51.944;9.796;2023-05-29T06:05:01;19.40;46.00
75819;DHT22;64453;51.944;9.796;2023-05-29T06:07:29;19.50;45.90
75819;DHT22;64453;51.944;9.796;2023-05-29T06:09:56;19.50;46.00
75819;DHT22;64453;51.944;9.796;2023-05-29T06:12:23;19.50;46.10
75819;DHT22;64453;51.944;9.796;2023-05-29T06:14:50;19.70;46.30
75819;DHT22;64453;51.944;9.796;2023-05-29T06:17:17;19.40;46.10
75819;DHT22;64453;51.944;9.796;2023-05-29T06:19:45;19.60;46.80
75819;DHT22;64453;51.944;9.796;2023-05-29T06:22:12;19.80;46.00
75819;DHT22;64453;51.944;9.796;2023-05-29T06:24:38;19.90;45.50
75819;DHT22;64453;51.944;9.796;2023-05-29T06:27:05;19.30;46.20
75819;DHT22;64453;51.944;9.796;2023-05-29T06:29:33;19.60;46.30
75819;DHT22;64453;51.944;9.796;2023-05-29T06:32:00;19.80;46.40
75819;DHT22;64453;51.944;9.796;2023-05-29T06:34:27;19.70;46.80
75819;DHT22;64453;51.944;9.796;2023-05-29T06:36:56;19.70;46.70
75819;DHT22;64453;51.944;9.796;2023-05-29T06:39:23;19.80;46.30
75819;DHT22;64453;51.944;9.796;2023-05-29T06:41:50;19.60;46.30
75819;DHT22;64453;51.944;9.796;2023-05-29T06:44:17;19.40;47.00
75819;DHT22;64453;51.944;9.796;2023-05-29T06:46:44;19.40;46.90
75819;DHT22;64453;51.944;9.796;2023-05-29T06:49:11;19.40;47.70
75819;DHT22;64453;51.944;9.796;2023-05-29T06:51:38;19.50;47.10
75819;DHT22;64453;51.944;9.796;2023-05-29T06:54:06;19.80;47.30
75819;DHT22;64453;51.944;9.796;2023-05-29T06:56:33;20.00;46.70
75819;DHT22;64453;51.944;9.796;2023-05-29T06:59:00;20.00;47.30
75819;DHT22;64453;51.944;9.796;2023-05-29T07:01:26;19.70;46.50
75819;DHT22;64453;51.944;9.796;2023-05-29T07:03:53;19.40;46.70
75819;DHT22;64453;51.944;9.796;2023-05-29T07:06:20;18.90;48.40
75819;DHT22;64453;51.944;9.796;2023-05-29T07:08:47;18.70;49.10
75819;DHT22;64453;51.944;9.796;2023-05-29T07:11:15;18.80;48.30
75819;DHT22;64453;51.944;9.796;2023-05-29T07:13:42;18.90;48.70
75819;DHT22;64453;51.944;9.796;2023-05-29T07:16:09;19.10;48.40
75819;DHT22;64453;51.944;9.796;2023-05-29T07:18:36;19.10;48.00
75819;DHT22;64453;51.944;9.796;2023-05-29T07:21:03;19.30;47.90
75819;DHT22;64453;51.944;9.796;2023-05-29T07:23:30;19.40;48.00
75819;DHT22;64453;51.944;9.796;2023-05-29T07:25:56;19.10;48.00
75819;DHT22;64453;51.944;9.796;2023-05-29T07:28:25;19.60;47.90
75819;DHT22;64453;51.944;9.796;2023-05-29T07:30:51;19.50;47.90
75819;DHT22;64453;51.944;9.796;2023-05-29T07:33:18;19.60;47.30
75819;DHT22;64453;51.944;9.796;2023-05-29T07:35:46;19.70;48.00
75819;DHT22;64453;51.944;9.796;2023-05-29T07:38:12;20.00;47.70
75819;DHT22;64453;51.944;9.796;2023-05-29T07:40:39;19.70;47.10
75819;DHT22;64453;51.944;9.796;2023-05-29T07:43:06;20.00;47.40
75819;DHT22;64453;51.944;9.796;2023-05-29T07:45:34;19.90;47.90
75819;DHT22;64453;51.944;9.796;2023-05-29T07:48:01;20.20;47.80
75819;DHT22;64453;51.944;9.796;2023-05-29T07:50:28;20.40;48.10
75819;DHT22;64453;51.944;9.796;2023-05-29T07:52:55;20.50;47.00
75819;DHT22;64453;51.944;9.796;2023-05-29T07:55:23;20.40;46.70
75819;DHT22;64453;51.944;9.796;2023-05-29T07:57:50;20.10;47.30
75819;DHT22;64453;51.944;9.796;2023-05-29T08:00:17;20.40;47.40
75819;DHT22;64453;51.944;9.796;2023-05-29T08:02:45;20.20;47.10
75819;DHT22;64453;51.944;9.796;2023-05-29T08:05:12;20.00;47.10
75819;DHT22;64453;51.944;9.796;2023-05-29T08:07:39;20.10;47.70
75819;DHT22;64453;51.944;9.796;2023-05-29T08:10:08;20.40;47.80
75819;DHT22;64453;51.944;9.796;2023-05-29T08:12:35;20.50;46.80
75819;DHT22;64453;51.944;9.796;2023-05-29T08:15:02;20.30;47.10
75819;DHT22;64453;51.944;9.796;2023-05-29T08:17:29;20.50;47.20
75819;DHT22;64453;51.944;9.796;2023-05-29T08:19:58;20.60;47.00
75819;DHT22;64453;51.944;9.796;2023-05-29T08:22:28;20.70;46.90
75819;DHT22;64453;51.944;9.796;2023-05-29T08:24:55;20.90;47.30
75819;DHT22;64453;51.944;9.796;2023-05-29T08:27:22;21.00;47.50
75819;DHT22;64453;51.944;9.796;2023-05-29T08:29:49;20.80;46.30
75819;DHT22;64453;51.944;9.796;2023-05-29T08:32:16;21.00;46.80
75819;DHT22;64453;51.944;9.796;2023-05-29T08:34:43;20.90;47.10
75819;DHT22;64453;51.944;9.796;2023-05-29T08:37:12;21.00;46.90
75819;DHT22;64453;51.944;9.796;2023-05-29T08:39:39;21.10;47.80
75819;DHT22;64453;51.944;9.796;2023-05-29T08:42:10;20.70;47.00
75819;DHT22;64453;51.944;9.796;2023-05-29T08:44:40;20.70;46.60
75819;DHT22;64453;51.944;9.796;2023-05-29T08:47:08;20.60;47.70
75819;DHT22;64453;51.944;9.796;2023-05-29T08:49:40;20.80;48.60
75819;DHT22;64453;51.944;9.796;2023-05-29T08:52:12;20.70;46.90
75819;DHT22;64453;51.944;9.796;2023-05-29T08:54:42;20.70;48.00
75819;DHT22;64453;51.944;9.796;2023-05-29T08:57:10;20.10;48.00
75819;DHT22;64453;51.944;9.796;2023-05-29T08:59:41;20.60;47.90
75819;DHT22;64453;51.944;9.796;2023-05-29T09:02:10;20.80;47.90
75819;DHT22;64453;51.944;9.796;2023-05-29T09:04:37;21.20;47.80
75819;DHT22;64453;51.944;9.796;2023-05-29T09:07:05;21.10;46.60
75819;DHT22;64453;51.944;9.796;2023-05-29T09:09:35;21.00;46.50
75819;DHT22;64453;51.944;9.796;2023-05-29T09:12:03;20.40;47.00
75819;DHT22;64453;51.944;9.796;2023-05-29T09:14:38;20.40;47.00
75819;DHT22;64453;51.944;9.796;2023-05-29T09:17:07;20.60;47.10
75819;DHT22;64453;51.944;9.796;2023-05-29T09:19:35;21.00;47.30
75819;DHT22;64453;51.944;9.796;2023-05-29T09:22:04;21.20;46.00
75819;DHT22;64453;51.944;9.796;2023-05-29T09:24:35;21.30;46.70
75819;DHT22;64453;51.944;9.796;2023-05-29T09:27:04;21.50;46.20
75819;DHT22;64453;51.944;9.796;2023-05-29T09:29:38;21.60;46.30
75819;DHT22;64453;51.944;9.796;2023-05-29T09:32:07;21.50;46.40
75819;DHT22;64453;51.944;9.796;2023-05-29T09:34:35;21.60;45.80
75819;DHT22;64453;51.944;9.796;2023-05-29T09:37:03;21.70;46.10
75819;DHT22;64453;51.944;9.796;2023-05-29T09:39:39;21.60;46.50
75819;DHT22;64453;51.944;9.796;2023-05-29T09:42:12;21.60;45.80
75819;DHT22;64453;51.944;9.796;2023-05-29T09:44:40;21.50;45.40
75819;DHT22;64453;51.944;9.796;2023-05-29T09:47:07;21.20;45.50
75819;DHT22;64453;51.944;9.796;2023-05-29T09:49:34;21.40;46.30
75819;DHT22;64453;51.944;9.796;2023-05-29T09:52:04;21.60;46.10
75819;DHT22;64453;51.944;9.796;2023-05-29T09:54:35;21.70;45.50
75819;DHT22;64453;51.944;9.796;2023-05-29T09:57:03;21.80;44.90
75819;DHT22;64453;51.944;9.796;2023-05-29T09:59:33;21.80;45.10
75819;DHT22;64453;51.944;9.796;2023-05-29T10:02:02;21.80;45.80
75819;DHT22;64453;51.944;9.796;2023-05-29T10:04:30;21.70;45.00
75819;DHT22;64453;51.944;9.796;2023-05-29T10:07:01;21.80;44.90
75819;DHT22;64453;51.944;9.796;2023-05-29T10:09:33;21.00;45.10
75819;DHT22;64453;51.944;9.796;2023-05-29T10:12:03;21.40;45.40
75819;DHT22;64453;51.944;9.796;2023-05-29T10:14:35;21.80;45.70
75819;DHT22;64453;51.944;9.796;2023-05-29T10:17:07;22.00;46.30
75819;DHT22;64453;51.944;9.796;2023-05-29T10:19:36;21.80;44.60
75819;DHT22;64453;51.944;9.796;2023-05-29T10:22:05;21.80;45.20
75819;DHT22;64453;51.944;9.796;2023-05-29T10:24:33;21.90;45.40
75819;DHT22;64453;51.944;9.796;2023-05-29T10:27:07;21.90;43.50
75819;DHT22;64453;51.944;9.796;2023-05-29T10:29:37;21.80;44.50
75819;DHT22;64453;51.944;9.796;2023-05-29T10:32:20;21.90;46.00
75819;DHT22;64453;51.944;9.796;2023-05-29T10:35:00;22.10;46.00
75819;DHT22;64453;51.944;9.796;2023-05-29T10:37:35;21.90;44.10
75819;DHT22;64453;51.944;9.796;2023-05-29T10:40:06;21.90;45.20
75819;DHT22;64453;51.944;9.796;2023-05-29T10:42:47;22.10;47.10
75819;DHT22;64453;51.944;9.796;2023-05-29T10:45:48;22.30;46.30
75819;DHT22;64453;51.944;9.796;2023-05-29T10:48:41;22.40;44.80
75819;DHT22;64453;51.944;9.796;2023-05-29T10:51:24;22.40;44.00
75819;DHT22;64453;51.944;9.796;2023-05-29T10:53:56;22.10;45.00
75819;DHT22;64453;51.944;9.796;2023-05-29T10:56:28;22.40;45.50
75819;DHT22;64453;51.944;9.796;2023-05-29T10:58:59;22.50;44.00
75819;DHT22;64453;51.944;9.796;2023-05-29T11:01:28;22.10;44.10
75819;DHT22;64453;51.944;9.796;2023-05-29T11:04:25;22.00;44.00
75819;DHT22;64453;51.944;9.796;2023-05-29T11:06:57;22.20;45.60
75819;DHT22;64453;51.944;9.796;2023-05-29T11:09:28;22.00;45.60
75819;DHT22;64453;51.944;9.796;2023-05-29T11:12:13;22.20;44.10
75819;DHT22;64453;51.944;9.796;2023-05-29T11:14:55;22.40;44.90
75819;DHT22;64453;51.944;9.796;2023-05-29T11:17:37;22.10;45.10
75819;DHT22;64453;51.944;9.796;2023-05-29T11:20:16;22.30;44.50
75819;DHT22;64453;51.944;9.796;2023-05-29T11:22:58;22.60;45.00
75819;DHT22;64453;51.944;9.796;2023-05-29T11:25:28;22.60;43.30
75819;DHT22;64453;51.944;9.796;2023-05-29T11:27:55;22.70;44.20
75819;DHT22;64453;51.944;9.796;2023-05-29T11:30:23;22.70;42.50
75819;DHT22;64453;51.944;9.796;2023-05-29T11:32:52;22.70;42.90
75819;DHT22;64453;51.944;9.796;2023-05-29T11:35:22;22.50;43.10
75819;DHT22;64453;51.944;9.796;2023-05-29T11:37:49;22.20;44.70
75819;DHT22;64453;51.944;9.796;2023-05-29T11:40:16;22.40;44.10
75819;DHT22;64453;51.944;9.796;2023-05-29T11:42:44;22.30;42.70
75819;DHT22;64453;51.944;9.796;2023-05-29T11:45:14;22.60;43.10
75819;DHT22;64453;51.944;9.796;2023-05-29T11:47:56;22.80;44.10
75819;DHT22;64453;51.944;9.796;2023-05-29T11:50:26;23.00;42.70
75819;DHT22;64453;51.944;9.796;2023-05-29T11:52:56;22.70;41.00
75819;DHT22;64453;51.944;9.796;2023-05-29T11:55:25;22.40;41.90
75819;DHT22;64453;51.944;9.796;2023-05-29T11:57:56;22.30;42.30
75819;DHT22;64453;51.944;9.796;2023-05-29T12:00:24;22.50;43.60
75819;DHT22;64453;51.944;9.796;2023-05-29T12:02:52;22.80;41.40
75819;DHT22;64453;51.944;9.796;2023-05-29T12:05:20;22.50;41.50
75819;DHT22;64453;51.944;9.796;2023-05-29T12:07:47;22.50;41.70
75819;DHT22;64453;51.944;9.796;2023-05-29T12:10:16;22.70;42.50
75819;DHT22;64453;51.944;9.796;2023-05-29T12:12:47;22.90;42.50
75819;DHT22;64453;51.944;9.796;2023-05-29T12:15:14;23.10;41.50
75819;DHT22;64453;51.944;9.796;2023-05-29T12:17:42;23.10;41.20
75819;DHT22;64453;51.944;9.796;2023-05-29T12:20:11;23.20;41.00
75819;DHT22;64453;51.944;9.796;2023-05-29T12:22:41;23.20;40.30
75819;DHT22;64453;51.944;9.796;2023-05-29T12:25:10;23.30;40.10
75819;DHT22;64453;51.944;9.796;2023-05-29T12:27:38;23.30;40.60
75819;DHT22;64453;51.944;9.796;2023-05-29T12:30:09;23.40;39.80
75819;DHT22;64453;51.944;9.796;2023-05-29T12:32:38;23.40;40.10
75819;DHT22;64453;51.944;9.796;2023-05-29T12:35:13;23.20;38.80
75819;DHT22;64453;51.944;9.796;2023-05-29T12:37:49;22.60;39.90
75819;DHT22;64453;51.944;9.796;2023-05-29T12:40:21;22.30;40.60
75819;DHT22;64453;51.944;9.796;2023-05-29T12:42:54;22.40;40.80
75819;DHT22;64453;51.944;9.796;2023-05-29T12:45:24;22.50;42.30
75819;DHT22;64453;51.944;9.796;2023-05-29T12:47:52;22.70;40.50
75819;DHT22;64453;51.944;9.796;2023-05-29T12:50:24;23.00;40.30
75819;DHT22;64453;51.944;9.796;2023-05-29T12:52:58;22.80;39.60
75819;DHT22;64453;51.944;9.796;2023-05-29T12:55:26;23.10;41.00
75819;DHT22;64453;51.944;9.796;2023-05-29T12:57:54;23.10;39.20
75819;DHT22;64453;51.944;9.796;2023-05-29T13:00:21;22.90;39.30
75819;DHT22;64453;51.944;9.796;2023-05-29T13:02:49;23.20;39.50
75819;DHT22;64453;51.944;9.796;2023-05-29T13:05:17;23.10;40.30
75819;DHT22;64453;51.944;9.796;2023-05-29T13:07:48;23.50;40.20
75819;DHT22;64453;51.944;9.796;2023-05-29T13:10:17;23.50;39.30
75819;DHT22;64453;51.944;9.796;2023-05-29T13:12:45;23.30;38.10
75819;DHT22;64453;51.944;9.796;2023-05-29T13:15:13;22.60;38.30
75819;DHT22;64453;51.944;9.796;2023-05-29T13:17:41;23.20;40.60
75819;DHT22;64453;51.944;9.796;2023-05-29T13:20:10;23.70;40.20
75819;DHT22;64453;51.944;9.796;2023-05-29T13:22:38;23.80;39.70
75819;DHT22;64453;51.944;9.796;2023-05-29T13:25:06;23.50;40.00
75819;DHT22;64453;51.944;9.796;2023-05-29T13:27:36;22.90;39.10
75819;DHT22;64453;51.944;9.796;2023-05-29T13:30:05;23.10;40.90
75819;DHT22;64453;51.944;9.796;2023-05-29T13:32:34;23.00;38.60
75819;DHT22;64453;51.944;9.796;2023-05-29T13:35:01;23.00;40.20
75819;DHT22;64453;51.944;9.796;2023-05-29T13:37:28;23.20;39.50
75819;DHT22;64453;51.944;9.796;2023-05-29T13:39:55;23.60;39.80
75819;DHT22;64453;51.944;9.796;2023-05-29T13:42:22;23.80;38.40
75819;DHT22;64453;51.944;9.796;2023-05-29T13:44:52;23.70;38.90
75819;DHT22;64453;51.944;9.796;2023-05-29T13:47:19;23.60;38.00
75819;DHT22;64453;51.944;9.796;2023-05-29T13:49:46;23.90;38.70
75819;DHT22;64453;51.944;9.796;2023-05-29T13:52:13;23.80;37.60
75819;DHT22;64453;51.944;9.796;2023-05-29T13:54:42;23.80;37.60
75819;DHT22;64453;51.944;9.796;2023-05-29T13:57:08;23.80;38.90
75819;DHT22;64453;51.944;9.796;2023-05-29T13:59:35;23.50;38.40
75819;DHT22;64453;51.944;9.796;2023-05-29T14:02:04;23.80;39.20
75819;DHT22;64453;51.944;9.796;2023-05-29T14:04:31;23.70;37.80
75819;DHT22;64453;51.944;9.796;2023-05-29T14:06:58;23.80;37.90
75819;DHT22;64453;51.944;9.796;2023-05-29T14:09:25;24.00;37.50
75819;DHT22;64453;51.944;9.796;2023-05-29T14:11:56;24.20;39.00
75819;DHT22;64453;51.944;9.796;2023-05-29T14:14:25;24.30;38.40
75819;DHT22;64453;51.944;9.796;2023-05-29T14:16:53;24.50;38.70
75819;DHT22;64453;51.944;9.796;2023-05-29T14:19:22;24.60;38.70
75819;DHT22;64453;51.944;9.796;2023-05-29T14:21:49;23.90;38.10
75819;DHT22;64453;51.944;9.796;2023-05-29T14:24:16;24.30;38.20
75819;DHT22;64453;51.944;9.796;2023-05-29T14:26:44;23.60;37.50
75819;DHT22;64453;51.944;9.796;2023-05-29T14:29:13;23.80;39.50
75819;DHT22;64453;51.944;9.796;2023-05-29T14:31:41;24.30;39.60
75819;DHT22;64453;51.944;9.796;2023-05-29T14:34:08;24.20;36.40
75819;DHT22;64453;51.944;9.796;2023-05-29T14:36:37;23.90;37.80
75819;DHT22;64453;51.944;9.796;2023-05-29T14:39:04;24.30;37.30
75819;DHT22;64453;51.944;9.796;2023-05-29T14:41:31;24.10;36.90
75819;DHT22;64453;51.944;9.796;2023-05-29T14:43:59;23.90;37.40
75819;DHT22;64453;51.944;9.796;2023-05-29T14:46:26;24.50;37.60
75819;DHT22;64453;51.944;9.796;2023-05-29T14:48:57;24.10;37.60
75819;DHT22;64453;51.944;9.796;2023-05-29T14:51:24;23.80;37.00
75819;DHT22;64453;51.944;9.796;2023-05-29T14:53:52;23.90;36.00
75819;DHT22;64453;51.944;9.796;2023-05-29T14:56:20;23.00;35.80
75819;DHT22;64453;51.944;9.796;2023-05-29T14:58:47;23.30;38.50
75819;DHT22;64453;51.944;9.796;2023-05-29T15:01:14;23.80;38.40
75819;DHT22;64453;51.944;9.796;2023-05-29T15:03:41;23.10;37.40
75819;DHT22;64453;51.944;9.796;2023-05-29T15:06:09;23.60;37.50
75819;DHT22;64453;51.944;9.796;2023-05-29T15:08:37;24.00;36.10
75819;DHT22;64453;51.944;9.796;2023-05-29T15:11:06;24.30;36.00
75819;DHT22;64453;51.944;9.796;2023-05-29T15:13:34;24.70;35.70
75819;DHT22;64453;51.944;9.796;2023-05-29T15:16:01;24.40;33.70
75819;DHT22;64453;51.944;9.796;2023-05-29T15:18:29;24.80;34.60
75819;DHT22;64453;51.944;9.796;2023-05-29T15:20:56;24.80;34.40
75819;DHT22;64453;51.944;9.796;2023-05-29T15:23:24;23.90;35.40
75819;DHT22;64453;51.944;9.796;2023-05-29T15:25:52;24.00;34.70
75819;DHT22;64453;51.944;9.796;2023-05-29T15:28:20;24.60;34.30
75819;DHT22;64453;51.944;9.796;2023-05-29T15:30:47;25.00;33.00
75819;DHT22;64453;51.944;9.796;2023-05-29T15:33:14;24.90;33.00
75819;DHT22;64453;51.944;9.796;2023-05-29T15:35:41;25.00;31.30
75819;DHT22;64453;51.944;9.796;2023-05-29T15:38:08;26.50;32.30
75819;DHT22;64453;51.944;9.796;2023-05-29T15:40:37;27.40;29.40